METAR AND TAF INFORMATION
METAR FOR UAAH
ADDS - METARS form results

(0411 UTC 26 August 2019)
Data provider http://aviationweather.gov/metar/data/
 
METAR text: UAAH 260400Z 09006MPS CAVOK 26/07 Q1013 NOSIG RMK QFE723/0964
Conditions at: UAAH (BALKHASH , KZ) observed 0400 UTC 26 August 2019
Temperature: 26.0°C (79°F)
Dewpoint: 7.0°C (45°F) [RH = 30%]
Pressure (altimeter): 29.91 inches Hg (1013.0 mb)
Winds: from the E (90 degrees) at 14 MPH (12 knots; 6.2 m/s)
Visibility: 6 or more miles (10+ km)
Ceiling: ceiling and visibility are OK
Clouds: unknown
Weather: no significant weather observed at this time

METAR text: UAAH 260330Z 08007MPS CAVOK 24/07 Q1013 NOSIG RMK QFE723/0964
Conditions at: UAAH (BALKHASH , KZ) observed 0330 UTC 26 August 2019
Temperature: 24.0°C (75°F)
Dewpoint: 7.0°C (45°F) [RH = 34%]
Pressure (altimeter): 29.91 inches Hg (1013.0 mb)
Winds: from the E (80 degrees) at 16 MPH (14 knots; 7.2 m/s)
Visibility: 6 or more miles (10+ km)
Ceiling: ceiling and visibility are OK
Clouds: unknown
Weather: no significant weather observed at this time

Forecast for: UAAH (BALKHASH , KZ)
Text: TAF UAAH 260201Z 2603/2612 05006MPS CAVOK
Forecast period: 0300 to 1200 UTC 26 August 2019
Forecast type: FROM: standard forecast or significant change
Winds: from the NE (50 degrees) at 14 MPH (12 knots; 6.2 m/s)
Visibility: 6 or more miles 10+ km)
Ceiling: unknown
Clouds: missing
Weather: NSW  (no significant weather)

 AIRPORT MAP

 RUNWAY INFORMATION

 AIRPORT FREQUENCIES
Type TWR Name TWR Frequency 128 MHZ

 AIRPORT NEAR NAVIGATION AIDS
Type NDB Name Balkhash Frequency 456 KHZ
Type VOR-DME Name Balkhash Frequency 113700 KHZ



2018 Air Astana Virtual Airline